sensor_id;sensor_type;location;lat;lon;timestamp;P1;durP1;ratioP1;P2;durP2;ratioP2
66342;SDS011;53144;51.524;5.080;2023-09-08T00:00:29;10.93;;;9.15;;
66342;SDS011;53144;51.524;5.080;2023-09-08T00:02:55;9.90;;;8.88;;
66342;SDS011;53144;51.524;5.080;2023-09-08T00:05:20;14.23;;;9.52;;
66342;SDS011;53144;51.524;5.080;2023-09-08T00:07:46;12.95;;;9.90;;
66342;SDS011;53144;51.524;5.080;2023-09-08T00:10:11;12.35;;;9.13;;
66342;SDS011;53144;51.524;5.080;2023-09-08T00:12:37;12.73;;;9.75;;
66342;SDS011;53144;51.524;5.080;2023-09-08T00:15:03;11.73;;;9.38;;
66342;SDS011;53144;51.524;5.080;2023-09-08T00:17:28;10.85;;;9.75;;
66342;SDS011;53144;51.524;5.080;2023-09-08T00:19:54;11.38;;;9.63;;
66342;SDS011;53144;51.524;5.080;2023-09-08T00:22:19;10.60;;;9.50;;
66342;SDS011;53144;51.524;5.080;2023-09-08T00:24:45;11.32;;;8.93;;
66342;SDS011;53144;51.524;5.080;2023-09-08T00:27:10;11.85;;;9.15;;
66342;SDS011;53144;51.524;5.080;2023-09-08T00:29:35;10.95;;;9.35;;
66342;SDS011;53144;51.524;5.080;2023-09-08T00:32:01;10.57;;;9.40;;
66342;SDS011;53144;51.524;5.080;2023-09-08T00:34:26;11.15;;;9.18;;
66342;SDS011;53144;51.524;5.080;2023-09-08T00:36:51;10.77;;;8.55;;
66342;SDS011;53144;51.524;5.080;2023-09-08T00:39:17;11.60;;;9.40;;
66342;SDS011;53144;51.524;5.080;2023-09-08T00:41:42;11.52;;;9.75;;
66342;SDS011;53144;51.524;5.080;2023-09-08T00:44:08;11.65;;;10.20;;
66342;SDS011;53144;51.524;5.080;2023-09-08T00:46:34;14.63;;;9.93;;
66342;SDS011;53144;51.524;5.080;2023-09-08T00:49:00;10.43;;;9.43;;
66342;SDS011;53144;51.524;5.080;2023-09-08T00:51:25;10.35;;;9.27;;
66342;SDS011;53144;51.524;5.080;2023-09-08T00:53:51;12.55;;;9.48;;
66342;SDS011;53144;51.524;5.080;2023-09-08T00:56:17;10.02;;;9.02;;
66342;SDS011;53144;51.524;5.080;2023-09-08T00:58:42;14.07;;;9.65;;
66342;SDS011;53144;51.524;5.080;2023-09-08T01:01:08;14.45;;;10.20;;
66342;SDS011;53144;51.524;5.080;2023-09-08T01:03:33;10.60;;;9.65;;
66342;SDS011;53144;51.524;5.080;2023-09-08T01:05:59;10.68;;;9.63;;
66342;SDS011;53144;51.524;5.080;2023-09-08T01:08:25;12.18;;;9.57;;
66342;SDS011;53144;51.524;5.080;2023-09-08T01:10:51;10.73;;;9.63;;
66342;SDS011;53144;51.524;5.080;2023-09-08T01:13:17;12.00;;;10.38;;
66342;SDS011;53144;51.524;5.080;2023-09-08T01:15:42;11.98;;;9.68;;
66342;SDS011;53144;51.524;5.080;2023-09-08T01:18:07;11.25;;;9.13;;
66342;SDS011;53144;51.524;5.080;2023-09-08T01:23:26;12.50;;;9.15;;
66342;SDS011;53144;51.524;5.080;2023-09-08T01:26:09;10.25;;;9.05;;
66342;SDS011;53144;51.524;5.080;2023-09-08T01:28:38;11.15;;;9.77;;
66342;SDS011;53144;51.524;5.080;2023-09-08T01:31:05;11.20;;;9.23;;
66342;SDS011;53144;51.524;5.080;2023-09-08T01:33:31;10.40;;;9.18;;
66342;SDS011;53144;51.524;5.080;2023-09-08T01:35:57;11.02;;;9.32;;
66342;SDS011;53144;51.524;5.080;2023-09-08T01:38:25;12.85;;;9.82;;
66342;SDS011;53144;51.524;5.080;2023-09-08T01:40:50;10.88;;;9.85;;
66342;SDS011;53144;51.524;5.080;2023-09-08T01:43:15;15.80;;;9.95;;
66342;SDS011;53144;51.524;5.080;2023-09-08T01:45:41;11.48;;;10.38;;
66342;SDS011;53144;51.524;5.080;2023-09-08T01:48:06;11.27;;;10.07;;
66342;SDS011;53144;51.524;5.080;2023-09-08T01:50:31;11.23;;;10.10;;
66342;SDS011;53144;51.524;5.080;2023-09-08T01:52:57;12.00;;;10.02;;
66342;SDS011;53144;51.524;5.080;2023-09-08T01:55:22;12.10;;;10.30;;
66342;SDS011;53144;51.524;5.080;2023-09-08T01:57:48;13.63;;;10.23;;
66342;SDS011;53144;51.524;5.080;2023-09-08T02:00:13;13.65;;;11.20;;
66342;SDS011;53144;51.524;5.080;2023-09-08T02:02:39;12.80;;;11.10;;
66342;SDS011;53144;51.524;5.080;2023-09-08T02:05:05;12.15;;;10.95;;
66342;SDS011;53144;51.524;5.080;2023-09-08T02:07:31;12.65;;;10.65;;
66342;SDS011;53144;51.524;5.080;2023-09-08T02:09:56;12.30;;;11.02;;
66342;SDS011;53144;51.524;5.080;2023-09-08T02:12:22;11.95;;;10.75;;
66342;SDS011;53144;51.524;5.080;2023-09-08T02:14:47;13.13;;;11.65;;
66342;SDS011;53144;51.524;5.080;2023-09-08T02:17:13;15.57;;;11.73;;
66342;SDS011;53144;51.524;5.080;2023-09-08T02:19:38;13.25;;;11.85;;
66342;SDS011;53144;51.524;5.080;2023-09-08T02:22:03;12.18;;;10.90;;
66342;SDS011;53144;51.524;5.080;2023-09-08T02:24:29;16.08;;;11.77;;
66342;SDS011;53144;51.524;5.080;2023-09-08T02:26:54;14.35;;;11.70;;
66342;SDS011;53144;51.524;5.080;2023-09-08T02:29:19;14.18;;;11.50;;
66342;SDS011;53144;51.524;5.080;2023-09-08T02:31:45;14.23;;;11.98;;
66342;SDS011;53144;51.524;5.080;2023-09-08T02:34:10;15.45;;;11.93;;
66342;SDS011;53144;51.524;5.080;2023-09-08T02:36:37;15.13;;;11.05;;
66342;SDS011;53144;51.524;5.080;2023-09-08T02:39:03;14.93;;;11.15;;
66342;SDS011;53144;51.524;5.080;2023-09-08T02:41:29;13.57;;;12.10;;
66342;SDS011;53144;51.524;5.080;2023-09-08T02:43:54;12.85;;;10.77;;
66342;SDS011;53144;51.524;5.080;2023-09-08T02:46:19;12.40;;;11.10;;
66342;SDS011;53144;51.524;5.080;2023-09-08T02:48:45;13.13;;;10.88;;
66342;SDS011;53144;51.524;5.080;2023-09-08T02:51:10;15.88;;;11.27;;
66342;SDS011;53144;51.524;5.080;2023-09-08T02:53:37;11.93;;;10.68;;
66342;SDS011;53144;51.524;5.080;2023-09-08T02:56:02;12.35;;;10.98;;
66342;SDS011;53144;51.524;5.080;2023-09-08T02:58:30;13.13;;;11.82;;
66342;SDS011;53144;51.524;5.080;2023-09-08T03:01:03;13.07;;;11.68;;
66342;SDS011;53144;51.524;5.080;2023-09-08T03:03:39;13.93;;;12.02;;
66342;SDS011;53144;51.524;5.080;2023-09-08T03:06:05;12.90;;;11.60;;
66342;SDS011;53144;51.524;5.080;2023-09-08T03:08:31;14.82;;;11.40;;
66342;SDS011;53144;51.524;5.080;2023-09-08T03:10:56;12.98;;;11.20;;
66342;SDS011;53144;51.524;5.080;2023-09-08T03:13:22;12.45;;;11.15;;
66342;SDS011;53144;51.524;5.080;2023-09-08T03:15:48;14.07;;;11.80;;
66342;SDS011;53144;51.524;5.080;2023-09-08T03:18:13;12.70;;;11.50;;
66342;SDS011;53144;51.524;5.080;2023-09-08T03:20:38;13.15;;;11.75;;
66342;SDS011;53144;51.524;5.080;2023-09-08T03:23:05;11.88;;;10.68;;
66342;SDS011;53144;51.524;5.080;2023-09-08T03:25:31;13.05;;;10.85;;
66342;SDS011;53144;51.524;5.080;2023-09-08T03:27:56;12.38;;;10.55;;
66342;SDS011;53144;51.524;5.080;2023-09-08T03:30:21;12.63;;;10.68;;
66342;SDS011;53144;51.524;5.080;2023-09-08T03:32:47;12.10;;;10.60;;
66342;SDS011;53144;51.524;5.080;2023-09-08T03:35:12;15.98;;;10.13;;
66342;SDS011;53144;51.524;5.080;2023-09-08T03:37:38;12.85;;;10.30;;
66342;SDS011;53144;51.524;5.080;2023-09-08T03:40:03;11.10;;;9.50;;
66342;SDS011;53144;51.524;5.080;2023-09-08T03:42:32;13.02;;;10.25;;
66342;SDS011;53144;51.524;5.080;2023-09-08T03:44:57;11.85;;;10.60;;
66342;SDS011;53144;51.524;5.080;2023-09-08T03:47:22;13.18;;;10.93;;
66342;SDS011;53144;51.524;5.080;2023-09-08T03:49:48;13.60;;;10.90;;
66342;SDS011;53144;51.524;5.080;2023-09-08T03:52:13;12.15;;;10.95;;
66342;SDS011;53144;51.524;5.080;2023-09-08T03:54:38;13.27;;;10.50;;
66342;SDS011;53144;51.524;5.080;2023-09-08T03:57:04;14.82;;;10.65;;
66342;SDS011;53144;51.524;5.080;2023-09-08T03:59:30;12.38;;;11.18;;
66342;SDS011;53144;51.524;5.080;2023-09-08T04:01:55;13.98;;;11.73;;
66342;SDS011;53144;51.524;5.080;2023-09-08T04:04:21;14.52;;;11.52;;
66342;SDS011;53144;51.524;5.080;2023-09-08T04:06:47;12.88;;;11.68;;
66342;SDS011;53144;51.524;5.080;2023-09-08T04:09:12;13.80;;;11.63;;
66342;SDS011;53144;51.524;5.080;2023-09-08T04:11:38;13.80;;;12.15;;
66342;SDS011;53144;51.524;5.080;2023-09-08T04:14:03;13.90;;;12.05;;
66342;SDS011;53144;51.524;5.080;2023-09-08T04:16:29;13.85;;;12.43;;
66342;SDS011;53144;51.524;5.080;2023-09-08T04:18:54;17.15;;;12.82;;
66342;SDS011;53144;51.524;5.080;2023-09-08T04:21:19;18.60;;;12.73;;
66342;SDS011;53144;51.524;5.080;2023-09-08T04:23:45;15.32;;;12.40;;
66342;SDS011;53144;51.524;5.080;2023-09-08T04:26:11;13.60;;;12.18;;
66342;SDS011;53144;51.524;5.080;2023-09-08T04:28:37;15.02;;;12.40;;
66342;SDS011;53144;51.524;5.080;2023-09-08T04:31:02;20.80;;;11.98;;
66342;SDS011;53144;51.524;5.080;2023-09-08T04:33:29;13.80;;;12.30;;
66342;SDS011;53144;51.524;5.080;2023-09-08T04:35:54;15.77;;;11.45;;
66342;SDS011;53144;51.524;5.080;2023-09-08T04:38:20;13.63;;;12.32;;
66342;SDS011;53144;51.524;5.080;2023-09-08T04:40:45;12.55;;;11.25;;
66342;SDS011;53144;51.524;5.080;2023-09-08T04:43:11;15.52;;;11.38;;
66342;SDS011;53144;51.524;5.080;2023-09-08T04:45:37;15.60;;;12.02;;
66342;SDS011;53144;51.524;5.080;2023-09-08T04:48:02;13.05;;;11.65;;
66342;SDS011;53144;51.524;5.080;2023-09-08T04:50:29;16.85;;;12.50;;
66342;SDS011;53144;51.524;5.080;2023-09-08T04:52:54;15.02;;;12.88;;
66342;SDS011;53144;51.524;5.080;2023-09-08T04:55:19;14.68;;;13.18;;
66342;SDS011;53144;51.524;5.080;2023-09-08T04:57:45;13.32;;;11.82;;
66342;SDS011;53144;51.524;5.080;2023-09-08T05:00:10;14.50;;;12.13;;
66342;SDS011;53144;51.524;5.080;2023-09-08T05:02:36;13.73;;;12.35;;
66342;SDS011;53144;51.524;5.080;2023-09-08T05:05:02;14.18;;;11.57;;
66342;SDS011;53144;51.524;5.080;2023-09-08T05:07:28;13.05;;;11.43;;
66342;SDS011;53144;51.524;5.080;2023-09-08T05:09:53;13.15;;;11.88;;
66342;SDS011;53144;51.524;5.080;2023-09-08T05:12:19;13.07;;;11.75;;
66342;SDS011;53144;51.524;5.080;2023-09-08T05:14:44;13.40;;;11.90;;
66342;SDS011;53144;51.524;5.080;2023-09-08T05:17:10;13.82;;;12.23;;
66342;SDS011;53144;51.524;5.080;2023-09-08T05:19:35;13.95;;;12.18;;
66342;SDS011;53144;51.524;5.080;2023-09-08T05:22:01;13.55;;;12.25;;
66342;SDS011;53144;51.524;5.080;2023-09-08T05:24:26;12.90;;;11.60;;
66342;SDS011;53144;51.524;5.080;2023-09-08T05:26:52;13.95;;;11.93;;
66342;SDS011;53144;51.524;5.080;2023-09-08T05:29:17;13.27;;;11.95;;
66342;SDS011;53144;51.524;5.080;2023-09-08T05:31:43;13.02;;;11.73;;
66342;SDS011;53144;51.524;5.080;2023-09-08T05:34:08;12.77;;;11.48;;
66342;SDS011;53144;51.524;5.080;2023-09-08T05:36:34;13.63;;;11.82;;
66342;SDS011;53144;51.524;5.080;2023-09-08T05:39:02;14.07;;;12.38;;
66342;SDS011;53144;51.524;5.080;2023-09-08T05:41:27;15.63;;;12.02;;
66342;SDS011;53144;51.524;5.080;2023-09-08T05:43:53;14.35;;;12.88;;
66342;SDS011;53144;51.524;5.080;2023-09-08T05:46:19;13.05;;;11.70;;
66342;SDS011;53144;51.524;5.080;2023-09-08T05:48:44;14.48;;;12.98;;
66342;SDS011;53144;51.524;5.080;2023-09-08T05:51:10;19.45;;;12.65;;
66342;SDS011;53144;51.524;5.080;2023-09-08T05:53:35;17.63;;;12.90;;
66342;SDS011;53144;51.524;5.080;2023-09-08T05:56:04;17.95;;;13.07;;
66342;SDS011;53144;51.524;5.080;2023-09-08T05:58:29;14.15;;;12.63;;
66342;SDS011;53144;51.524;5.080;2023-09-08T06:00:55;15.73;;;13.75;;
66342;SDS011;53144;51.524;5.080;2023-09-08T06:03:21;15.65;;;12.77;;
66342;SDS011;53144;51.524;5.080;2023-09-08T06:05:46;16.38;;;13.30;;
66342;SDS011;53144;51.524;5.080;2023-09-08T06:08:11;15.85;;;14.25;;
66342;SDS011;53144;51.524;5.080;2023-09-08T06:10:37;16.85;;;14.15;;
66342;SDS011;53144;51.524;5.080;2023-09-08T06:13:03;18.23;;;13.43;;
66342;SDS011;53144;51.524;5.080;2023-09-08T06:15:28;16.23;;;13.55;;
66342;SDS011;53144;51.524;5.080;2023-09-08T06:17:54;16.30;;;13.80;;
66342;SDS011;53144;51.524;5.080;2023-09-08T06:20:20;15.32;;;13.73;;
66342;SDS011;53144;51.524;5.080;2023-09-08T06:22:46;15.52;;;12.85;;
66342;SDS011;53144;51.524;5.080;2023-09-08T06:25:11;15.32;;;13.75;;
66342;SDS011;53144;51.524;5.080;2023-09-08T06:27:37;14.68;;;12.93;;
66342;SDS011;53144;51.524;5.080;2023-09-08T06:30:03;14.65;;;13.23;;
66342;SDS011;53144;51.524;5.080;2023-09-08T06:32:29;15.77;;;13.73;;
66342;SDS011;53144;51.524;5.080;2023-09-08T06:34:54;15.70;;;14.02;;
66342;SDS011;53144;51.524;5.080;2023-09-08T06:37:20;14.88;;;13.32;;
66342;SDS011;53144;51.524;5.080;2023-09-08T06:39:45;15.27;;;13.75;;
66342;SDS011;53144;51.524;5.080;2023-09-08T06:42:10;16.05;;;14.27;;
66342;SDS011;53144;51.524;5.080;2023-09-08T06:44:36;15.02;;;13.48;;
66342;SDS011;53144;51.524;5.080;2023-09-08T06:47:01;16.48;;;14.68;;
66342;SDS011;53144;51.524;5.080;2023-09-08T06:49:28;17.98;;;14.00;;
66342;SDS011;53144;51.524;5.080;2023-09-08T06:51:53;15.02;;;13.63;;
66342;SDS011;53144;51.524;5.080;2023-09-08T06:54:19;16.73;;;13.88;;
66342;SDS011;53144;51.524;5.080;2023-09-08T06:56:45;15.38;;;13.88;;
66342;SDS011;53144;51.524;5.080;2023-09-08T06:59:10;17.92;;;14.27;;
66342;SDS011;53144;51.524;5.080;2023-09-08T07:01:36;15.38;;;13.60;;
66342;SDS011;53144;51.524;5.080;2023-09-08T07:04:01;15.95;;;14.35;;
66342;SDS011;53144;51.524;5.080;2023-09-08T07:06:27;15.70;;;13.98;;
66342;SDS011;53144;51.524;5.080;2023-09-08T07:08:52;16.00;;;14.30;;
66342;SDS011;53144;51.524;5.080;2023-09-08T07:11:18;17.35;;;14.45;;
66342;SDS011;53144;51.524;5.080;2023-09-08T07:13:44;15.35;;;13.80;;
66342;SDS011;53144;51.524;5.080;2023-09-08T07:16:09;15.80;;;14.00;;
66342;SDS011;53144;51.524;5.080;2023-09-08T07:18:35;15.30;;;13.70;;
66342;SDS011;53144;51.524;5.080;2023-09-08T07:21:02;16.33;;;14.35;;
66342;SDS011;53144;51.524;5.080;2023-09-08T07:23:28;15.13;;;13.63;;
66342;SDS011;53144;51.524;5.080;2023-09-08T07:25:53;20.15;;;14.85;;
66342;SDS011;53144;51.524;5.080;2023-09-08T07:28:19;16.67;;;14.73;;
66342;SDS011;53144;51.524;5.080;2023-09-08T07:30:44;16.48;;;14.75;;
66342;SDS011;53144;51.524;5.080;2023-09-08T07:33:10;17.17;;;15.40;;
66342;SDS011;53144;51.524;5.080;2023-09-08T07:35:39;15.95;;;14.45;;
66342;SDS011;53144;51.524;5.080;2023-09-08T07:38:05;16.77;;;15.07;;
66342;SDS011;53144;51.524;5.080;2023-09-08T07:40:34;16.10;;;14.57;;
66342;SDS011;53144;51.524;5.080;2023-09-08T07:42:59;16.02;;;14.43;;
66342;SDS011;53144;51.524;5.080;2023-09-08T07:45:25;16.35;;;14.65;;
66342;SDS011;53144;51.524;5.080;2023-09-08T07:47:50;16.52;;;14.75;;
66342;SDS011;53144;51.524;5.080;2023-09-08T07:50:25;16.98;;;14.45;;
66342;SDS011;53144;51.524;5.080;2023-09-08T07:52:53;16.85;;;15.15;;
66342;SDS011;53144;51.524;5.080;2023-09-08T07:55:20;17.45;;;13.93;;
66342;SDS011;53144;51.524;5.080;2023-09-08T07:57:48;16.77;;;14.10;;
66342;SDS011;53144;51.524;5.080;2023-09-08T08:00:14;15.25;;;13.65;;
66342;SDS011;53144;51.524;5.080;2023-09-08T08:02:41;17.10;;;14.52;;
66342;SDS011;53144;51.524;5.080;2023-09-08T08:05:09;17.83;;;15.07;;
66342;SDS011;53144;51.524;5.080;2023-09-08T08:07:35;15.48;;;13.40;;
66342;SDS011;53144;51.524;5.080;2023-09-08T08:10:00;15.45;;;13.85;;
66342;SDS011;53144;51.524;5.080;2023-09-08T08:12:26;15.32;;;13.82;;
66342;SDS011;53144;51.524;5.080;2023-09-08T08:14:53;15.43;;;13.45;;
66342;SDS011;53144;51.524;5.080;2023-09-08T08:17:18;15.95;;;13.30;;
66342;SDS011;53144;51.524;5.080;2023-09-08T08:19:44;14.85;;;13.35;;
66342;SDS011;53144;51.524;5.080;2023-09-08T08:22:10;16.60;;;13.18;;
66342;SDS011;53144;51.524;5.080;2023-09-08T08:24:35;14.07;;;12.52;;
66342;SDS011;53144;51.524;5.080;2023-09-08T08:27:01;15.20;;;13.02;;
66342;SDS011;53144;51.524;5.080;2023-09-08T08:29:28;13.25;;;11.98;;
66342;SDS011;53144;51.524;5.080;2023-09-08T08:31:54;14.25;;;12.85;;
66342;SDS011;53144;51.524;5.080;2023-09-08T08:34:19;15.20;;;12.50;;
66342;SDS011;53144;51.524;5.080;2023-09-08T08:36:44;13.88;;;11.80;;
66342;SDS011;53144;51.524;5.080;2023-09-08T08:39:10;13.88;;;12.40;;
66342;SDS011;53144;51.524;5.080;2023-09-08T08:41:35;14.43;;;12.68;;
66342;SDS011;53144;51.524;5.080;2023-09-08T08:44:05;13.50;;;12.25;;
66342;SDS011;53144;51.524;5.080;2023-09-08T08:46:31;13.10;;;11.73;;
66342;SDS011;53144;51.524;5.080;2023-09-08T08:48:58;13.02;;;11.68;;
66342;SDS011;53144;51.524;5.080;2023-09-08T08:51:26;13.90;;;11.73;;
66342;SDS011;53144;51.524;5.080;2023-09-08T08:53:55;17.13;;;12.35;;
66342;SDS011;53144;51.524;5.080;2023-09-08T08:56:20;14.88;;;11.15;;
66342;SDS011;53144;51.524;5.080;2023-09-08T08:58:47;14.95;;;12.27;;
66342;SDS011;53144;51.524;5.080;2023-09-08T09:01:13;17.23;;;12.07;;
66342;SDS011;53144;51.524;5.080;2023-09-08T09:03:41;12.98;;;11.60;;
66342;SDS011;53144;51.524;5.080;2023-09-08T09:06:09;11.70;;;10.50;;
66342;SDS011;53144;51.524;5.080;2023-09-08T09:08:35;12.25;;;10.95;;
66342;SDS011;53144;51.524;5.080;2023-09-08T09:11:03;16.92;;;10.15;;
66342;SDS011;53144;51.524;5.080;2023-09-08T09:13:29;11.05;;;9.93;;
66342;SDS011;53144;51.524;5.080;2023-09-08T09:15:58;14.02;;;11.18;;
66342;SDS011;53144;51.524;5.080;2023-09-08T09:18:25;12.05;;;10.60;;
66342;SDS011;53144;51.524;5.080;2023-09-08T09:20:54;12.93;;;10.82;;
66342;SDS011;53144;51.524;5.080;2023-09-08T09:23:28;11.40;;;10.02;;
66342;SDS011;53144;51.524;5.080;2023-09-08T09:25:57;10.75;;;9.60;;
66342;SDS011;53144;51.524;5.080;2023-09-08T09:28:24;11.52;;;9.40;;
66342;SDS011;53144;51.524;5.080;2023-09-08T09:30:50;11.13;;;10.00;;
66342;SDS011;53144;51.524;5.080;2023-09-08T09:33:19;13.73;;;10.77;;
66342;SDS011;53144;51.524;5.080;2023-09-08T09:35:52;13.10;;;11.10;;
66342;SDS011;53144;51.524;5.080;2023-09-08T09:38:19;17.58;;;10.32;;
66342;SDS011;53144;51.524;5.080;2023-09-08T09:40:45;14.95;;;10.98;;
66342;SDS011;53144;51.524;5.080;2023-09-08T09:43:12;12.55;;;10.40;;
66342;SDS011;53144;51.524;5.080;2023-09-08T09:45:39;11.23;;;9.55;;
66342;SDS011;53144;51.524;5.080;2023-09-08T09:48:05;11.07;;;9.82;;
66342;SDS011;53144;51.524;5.080;2023-09-08T09:50:33;11.43;;;9.48;;
66342;SDS011;53144;51.524;5.080;2023-09-08T09:53:00;12.93;;;9.45;;
66342;SDS011;53144;51.524;5.080;2023-09-08T09:55:27;14.73;;;10.25;;
66342;SDS011;53144;51.524;5.080;2023-09-08T09:57:57;11.55;;;9.05;;
66342;SDS011;53144;51.524;5.080;2023-09-08T10:00:25;12.30;;;9.90;;
66342;SDS011;53144;51.524;5.080;2023-09-08T10:02:52;13.45;;;9.77;;
66342;SDS011;53144;51.524;5.080;2023-09-08T10:05:19;12.48;;;9.68;;
66342;SDS011;53144;51.524;5.080;2023-09-08T10:07:45;11.73;;;8.75;;
66342;SDS011;53144;51.524;5.080;2023-09-08T10:10:12;12.23;;;8.43;;
66342;SDS011;53144;51.524;5.080;2023-09-08T10:12:38;9.35;;;8.48;;
66342;SDS011;53144;51.524;5.080;2023-09-08T10:15:07;10.25;;;9.25;;
66342;SDS011;53144;51.524;5.080;2023-09-08T10:17:35;15.38;;;9.32;;
66342;SDS011;53144;51.524;5.080;2023-09-08T10:20:02;10.57;;;8.70;;
66342;SDS011;53144;51.524;5.080;2023-09-08T10:22:36;10.77;;;7.90;;
66342;SDS011;53144;51.524;5.080;2023-09-08T10:25:08;11.30;;;8.90;;
66342;SDS011;53144;51.524;5.080;2023-09-08T10:27:35;11.20;;;8.45;;
66342;SDS011;53144;51.524;5.080;2023-09-08T10:30:02;10.20;;;8.80;;
66342;SDS011;53144;51.524;5.080;2023-09-08T10:32:32;12.00;;;8.32;;
66342;SDS011;53144;51.524;5.080;2023-09-08T10:35:00;11.65;;;8.07;;
66342;SDS011;53144;51.524;5.080;2023-09-08T10:37:28;9.65;;;7.78;;
66342;SDS011;53144;51.524;5.080;2023-09-08T10:39:54;10.77;;;7.18;;
66342;SDS011;53144;51.524;5.080;2023-09-08T10:42:20;9.60;;;8.05;;
66342;SDS011;53144;51.524;5.080;2023-09-08T10:47:18;10.82;;;7.57;;
66342;SDS011;53144;51.524;5.080;2023-09-08T10:49:44;8.80;;;7.28;;
66342;SDS011;53144;51.524;5.080;2023-09-08T10:52:11;10.52;;;7.20;;
66342;SDS011;53144;51.524;5.080;2023-09-08T10:54:40;8.88;;;7.00;;
66342;SDS011;53144;51.524;5.080;2023-09-08T10:57:13;8.18;;;7.32;;
66342;SDS011;53144;51.524;5.080;2023-09-08T10:59:40;7.47;;;6.55;;
66342;SDS011;53144;51.524;5.080;2023-09-08T11:02:52;14.93;;;7.65;;
66342;SDS011;53144;51.524;5.080;2023-09-08T11:05:00;10.02;;;7.25;;
66342;SDS011;53144;51.524;5.080;2023-09-08T11:07:27;9.80;;;6.70;;
66342;SDS011;53144;51.524;5.080;2023-09-08T11:09:53;11.43;;;6.97;;
66342;SDS011;53144;51.524;5.080;2023-09-08T11:12:19;10.63;;;7.13;;
66342;SDS011;53144;51.524;5.080;2023-09-08T11:14:48;9.75;;;6.72;;
66342;SDS011;53144;51.524;5.080;2023-09-08T11:17:14;7.30;;;6.57;;
66342;SDS011;53144;51.524;5.080;2023-09-08T11:19:46;10.32;;;6.28;;
66342;SDS011;53144;51.524;5.080;2023-09-08T11:22:12;13.98;;;7.00;;
66342;SDS011;53144;51.524;5.080;2023-09-08T11:24:38;11.82;;;6.90;;
66342;SDS011;53144;51.524;5.080;2023-09-08T11:27:06;9.77;;;6.47;;
66342;SDS011;53144;51.524;5.080;2023-09-08T11:29:32;8.85;;;6.68;;
66342;SDS011;53144;51.524;5.080;2023-09-08T11:31:58;10.05;;;6.22;;
66342;SDS011;53144;51.524;5.080;2023-09-08T11:34:23;7.85;;;5.68;;
66342;SDS011;53144;51.524;5.080;2023-09-08T11:36:48;7.43;;;6.60;;
66342;SDS011;53144;51.524;5.080;2023-09-08T11:39:14;7.45;;;6.72;;
66342;SDS011;53144;51.524;5.080;2023-09-08T11:41:40;11.50;;;6.68;;
66342;SDS011;53144;51.524;5.080;2023-09-08T11:44:06;6.65;;;5.95;;
66342;SDS011;53144;51.524;5.080;2023-09-08T11:46:31;6.97;;;6.28;;
66342;SDS011;53144;51.524;5.080;2023-09-08T11:48:57;9.77;;;6.35;;
66342;SDS011;53144;51.524;5.080;2023-09-08T11:51:23;9.90;;;6.50;;
66342;SDS011;53144;51.524;5.080;2023-09-08T11:53:49;11.80;;;6.20;;
66342;SDS011;53144;51.524;5.080;2023-09-08T11:56:14;9.48;;;6.80;;
66342;SDS011;53144;51.524;5.080;2023-09-08T11:58:41;10.02;;;7.05;;
66342;SDS011;53144;51.524;5.080;2023-09-08T12:01:07;7.97;;;6.43;;
66342;SDS011;53144;51.524;5.080;2023-09-08T12:03:33;10.70;;;6.68;;
66342;SDS011;53144;51.524;5.080;2023-09-08T12:05:58;11.20;;;6.53;;
66342;SDS011;53144;51.524;5.080;2023-09-08T12:08:25;13.70;;;6.78;;
66342;SDS011;53144;51.524;5.080;2023-09-08T12:10:53;13.70;;;6.22;;
66342;SDS011;53144;51.524;5.080;2023-09-08T12:13:22;8.82;;;6.05;;
66342;SDS011;53144;51.524;5.080;2023-09-08T12:15:48;9.00;;;6.13;;
66342;SDS011;53144;51.524;5.080;2023-09-08T12:18:14;13.70;;;6.40;;
66342;SDS011;53144;51.524;5.080;2023-09-08T12:20:40;6.60;;;6.00;;
66342;SDS011;53144;51.524;5.080;2023-09-08T12:23:06;9.73;;;6.80;;
66342;SDS011;53144;51.524;5.080;2023-09-08T12:25:47;12.93;;;6.53;;
66342;SDS011;53144;51.524;5.080;2023-09-08T12:28:13;9.35;;;6.43;;
66342;SDS011;53144;51.524;5.080;2023-09-08T12:30:39;11.50;;;6.22;;
66342;SDS011;53144;51.524;5.080;2023-09-08T12:33:04;11.02;;;6.00;;
66342;SDS011;53144;51.524;5.080;2023-09-08T12:35:31;7.80;;;5.60;;
66342;SDS011;53144;51.524;5.080;2023-09-08T12:37:57;7.15;;;5.85;;
66342;SDS011;53144;51.524;5.080;2023-09-08T12:40:27;11.98;;;6.00;;
66342;SDS011;53144;51.524;5.080;2023-09-08T12:42:53;9.93;;;5.50;;
66342;SDS011;53144;51.524;5.080;2023-09-08T12:45:22;9.30;;;5.53;;
66342;SDS011;53144;51.524;5.080;2023-09-08T12:47:48;7.75;;;5.53;;
66342;SDS011;53144;51.524;5.080;2023-09-08T12:50:14;6.15;;;5.50;;
66342;SDS011;53144;51.524;5.080;2023-09-08T12:52:39;8.15;;;5.57;;
66342;SDS011;53144;51.524;5.080;2023-09-08T12:55:05;12.05;;;5.50;;
66342;SDS011;53144;51.524;5.080;2023-09-08T12:57:31;9.55;;;5.53;;
66342;SDS011;53144;51.524;5.080;2023-09-08T12:59:56;7.65;;;5.30;;
66342;SDS011;53144;51.524;5.080;2023-09-08T13:02:22;5.13;;;4.63;;
66342;SDS011;53144;51.524;5.080;2023-09-08T13:04:47;6.93;;;4.72;;
66342;SDS011;53144;51.524;5.080;2023-09-08T13:07:16;8.25;;;5.45;;
66342;SDS011;53144;51.524;5.080;2023-09-08T13:09:42;10.88;;;4.97;;
66342;SDS011;53144;51.524;5.080;2023-09-08T13:12:08;5.78;;;4.32;;
66342;SDS011;53144;51.524;5.080;2023-09-08T13:14:35;9.27;;;4.68;;
66342;SDS011;53144;51.524;5.080;2023-09-08T13:17:01;9.18;;;5.13;;
66342;SDS011;53144;51.524;5.080;2023-09-08T13:19:26;7.88;;;4.75;;
66342;SDS011;53144;51.524;5.080;2023-09-08T13:21:52;9.75;;;4.97;;
66342;SDS011;53144;51.524;5.080;2023-09-08T13:24:17;10.18;;;4.88;;
66342;SDS011;53144;51.524;5.080;2023-09-08T13:26:44;7.43;;;4.88;;
66342;SDS011;53144;51.524;5.080;2023-09-08T13:29:09;7.05;;;4.93;;
66342;SDS011;53144;51.524;5.080;2023-09-08T13:31:34;7.93;;;4.93;;
66342;SDS011;53144;51.524;5.080;2023-09-08T13:34:00;8.55;;;5.47;;
66342;SDS011;53144;51.524;5.080;2023-09-08T13:36:25;10.00;;;4.38;;
66342;SDS011;53144;51.524;5.080;2023-09-08T13:38:51;8.35;;;4.70;;
66342;SDS011;53144;51.524;5.080;2023-09-08T13:41:16;6.30;;;4.55;;
66342;SDS011;53144;51.524;5.080;2023-09-08T13:43:41;9.45;;;4.55;;
66342;SDS011;53144;51.524;5.080;2023-09-08T13:46:07;6.47;;;4.70;;
66342;SDS011;53144;51.524;5.080;2023-09-08T13:48:32;6.40;;;4.80;;
66342;SDS011;53144;51.524;5.080;2023-09-08T13:51:04;8.27;;;4.30;;
66342;SDS011;53144;51.524;5.080;2023-09-08T13:53:29;9.05;;;4.57;;
66342;SDS011;53144;51.524;5.080;2023-09-08T13:55:58;8.90;;;4.65;;
66342;SDS011;53144;51.524;5.080;2023-09-08T13:58:24;8.48;;;4.88;;
66342;SDS011;53144;51.524;5.080;2023-09-08T14:00:49;5.35;;;4.72;;
66342;SDS011;53144;51.524;5.080;2023-09-08T14:03:16;12.38;;;5.22;;
66342;SDS011;53144;51.524;5.080;2023-09-08T14:05:42;8.30;;;4.28;;
66342;SDS011;53144;51.524;5.080;2023-09-08T14:08:07;6.53;;;4.45;;
66342;SDS011;53144;51.524;5.080;2023-09-08T14:10:33;9.38;;;4.55;;
66342;SDS011;53144;51.524;5.080;2023-09-08T14:12:58;9.63;;;4.90;;
66342;SDS011;53144;51.524;5.080;2023-09-08T14:15:23;7.00;;;4.15;;
66342;SDS011;53144;51.524;5.080;2023-09-08T14:17:49;9.15;;;4.50;;
66342;SDS011;53144;51.524;5.080;2023-09-08T14:20:14;6.18;;;4.20;;
66342;SDS011;53144;51.524;5.080;2023-09-08T14:22:40;8.18;;;4.20;;
66342;SDS011;53144;51.524;5.080;2023-09-08T14:25:05;10.60;;;4.47;;
66342;SDS011;53144;51.524;5.080;2023-09-08T14:27:31;6.50;;;4.15;;
66342;SDS011;53144;51.524;5.080;2023-09-08T14:29:56;6.57;;;4.57;;